Sterling, North Dakota
Current Conditions -  °F | °C
As of 2:52 PM on Wednesday 17 Dec 2014 (Local Time) from KBIS Reporting Station
Clear Clear  
Wind Chill:   Ceiling: Unl
Heat Index: 19°   Visibility: 10mi
Dew Point: 10°   Wind: 12mph
Humidity: 68%   Direction: 140°SE
Pressure: 30.2"   Gusts: NA
Location:  46.81°N, 100.29°W
Report Text: KBIS 172052Z 14010KT 10SM CLR M07/M12 A3020 RMK AO2 SLP259 T10721122 56023
Loading
Personal Weather Stations






























Interactive Weather Map New forecast layout! Learn more

10-Day Weather Forecast

Advertisements
Track Severe Weather on mobile